Time;durP1;ratioP1;P1;durP2;ratioP2;P2;SDS_P1;SDS_P2;PMS_P1;PMS_P2;Temp;Humidity;BMP_temperature;BMP_pressure;BME280_temperature;BME280_humidity;BME280_pressure;Samples;Min_cycle;Max_cycle;Signal;HPM_P1;HPM_P2
2021/09/14 00:02:01;;;;;;;1999.90;999.90;;;;;;;;;;5032158;28;20832;-86
2021/09/14 00:04:28;;;;;;;1999.90;999.90;;;;;;;;;;5032981;28;20470;-87
2021/09/14 00:06:55;;;;;;;1999.90;999.90;;;;;;;;;;5033476;28;20484;-87
2021/09/14 00:09:22;;;;;;;1999.90;999.90;;;;;;;;;;5034726;28;20541;-87
2021/09/14 00:11:51;;;;;;;1999.90;999.90;;;;;;;;;;5034714;28;20964;-88
2021/09/14 00:14:18;;;;;;;1999.90;999.90;;;;;;;;;;5034371;28;20456;-87
2021/09/14 00:16:45;;;;;;;1999.90;999.90;;;;;;;;;;5033687;28;20871;-86
2021/09/14 00:19:12;;;;;;;1999.90;999.90;;;;;;;;;;5034447;28;20449;-87
2021/09/14 00:21:39;;;;;;;1999.90;999.90;;;;;;;;;;5035630;28;20450;-86
2021/09/14 00:24:07;;;;;;;1999.90;999.90;;;;;;;;;;5037044;28;20459;-86
2021/09/14 00:26:34;;;;;;;1999.90;999.90;;;;;;;;;;5036344;28;21103;-86
2021/09/14 00:29:02;;;;;;;1999.90;999.90;;;;;;;;;;5037305;28;20463;-86
2021/09/14 00:31:29;;;;;;;1999.90;999.90;;;16.10;99.90;;;;;;5039490;28;20459;-86
2021/09/14 00:33:56;;;;;;;1999.90;999.90;;;15.80;99.90;;;;;;5037452;28;20447;-87
2021/09/14 00:36:23;;;;;;;1999.90;999.90;;;15.80;99.90;;;;;;5018564;28;20480;-86
2021/09/14 00:38:50;;;;;;;1999.90;999.90;;;15.80;99.90;;;;;;5019033;28;20451;-86
2021/09/14 00:41:17;;;;;;;1999.90;999.90;;;15.70;99.90;;;;;;5018755;28;20461;-87
2021/09/14 00:43:55;;;;;;;1999.90;999.90;;;15.70;99.90;;;;;;5017424;28;20967;-87
2021/09/14 00:46:24;;;;;;;1999.90;999.90;;;15.70;99.90;;;;;;5036485;28;20472;-87
2021/09/14 00:48:51;;;;;;;1999.90;999.90;;;15.60;99.90;;;;;;5042969;28;20444;-87
2021/09/14 00:51:18;;;;;;;1999.90;999.90;;;15.60;99.90;;;;;;5056519;28;20456;-87
2021/09/14 00:53:47;;;;;;;1999.90;999.90;;;15.50;99.90;;;;;;5055947;28;20455;-87
2021/09/14 00:56:14;;;;;;;1999.90;999.90;;;15.50;99.90;;;;;;5046068;28;20461;-88
2021/09/14 00:58:41;;;;;;;1999.90;999.90;;;15.40;99.90;;;;;;5051298;28;20520;-87
2021/09/14 01:01:08;;;;;;;1999.90;999.90;;;15.40;99.90;;;;;;5036544;28;20849;-86
2021/09/14 01:03:36;;;;;;;1999.90;999.90;;;15.40;99.90;;;;;;5036645;28;20467;-87
2021/09/14 01:06:04;;;;;;;1999.90;999.90;;;15.40;99.90;;;;;;5035954;28;20488;-86
2021/09/14 01:08:32;;;;;;;1999.90;999.90;;;15.30;99.90;;;;;;5036083;28;20455;-87
2021/09/14 01:11:00;;;;;;;1999.90;999.90;;;15.30;99.90;;;;;;5022402;28;20953;-86
2021/09/14 01:13:27;;;;;;;1999.90;999.90;;;15.20;99.90;;;;;;5017946;28;20453;-86
2021/09/14 01:15:54;;;;;;;1999.90;999.90;;;15.20;99.90;;;;;;5034276;28;21023;-87
2021/09/14 01:18:21;;;;;;;1999.90;999.90;;;15.20;99.90;;;;;;5036917;28;20494;-87
2021/09/14 01:20:49;;;;;;;1999.90;999.90;;;15.10;99.90;;;;;;5037481;28;20453;-87
2021/09/14 01:23:17;;;;;;;1999.90;999.90;;;15.10;99.90;;;;;;5036922;28;20495;-87
2021/09/14 01:25:44;;;;;;;1999.90;999.90;;;15.10;99.90;;;;;;5021578;28;20473;-86
2021/09/14 01:28:11;;;;;;;1999.90;999.90;;;15.10;99.90;;;;;;5033297;28;20468;-87
2021/09/14 01:30:38;;;;;;;1999.90;999.90;;;15.00;99.90;;;;;;5027239;28;20448;-87
2021/09/14 01:33:05;;;;;;;1999.90;999.90;;;15.00;99.90;;;;;;5033063;28;20452;-87
2021/09/14 01:35:32;;;;;;;1999.90;999.90;;;14.90;99.90;;;;;;5036652;28;20484;-86
2021/09/14 01:37:59;;;;;;;1999.90;999.90;;;14.90;99.90;;;;;;5034267;28;20508;-87
2021/09/14 01:40:28;;;;;;;1999.90;999.90;;;14.90;99.90;;;;;;5035951;28;20466;-87
2021/09/14 01:42:54;;;;;;;1999.90;999.90;;;14.90;99.90;;;;;;5035307;28;20507;-87
2021/09/14 01:45:22;;;;;;;1999.90;999.90;;;14.90;99.90;;;;;;5035991;28;20463;-87
2021/09/14 01:47:49;;;;;;;1999.90;999.90;;;14.90;99.90;;;;;;5034061;28;20461;-87
2021/09/14 01:50:16;;;;;;;1999.90;999.90;;;14.90;99.90;;;;;;5052393;28;20462;-87
2021/09/14 01:52:43;;;;;;;1999.90;999.90;;;14.70;99.90;;;;;;5050315;28;20464;-87
2021/09/14 01:55:13;;;;;;;1999.90;999.90;;;14.70;99.90;;;;;;5034531;28;20520;-87
2021/09/14 01:57:42;;;;;;;1999.90;999.90;;;14.70;99.90;;;;;;5037402;28;20485;-86
2021/09/14 02:00:14;;;;;;;1999.90;999.90;;;14.70;99.90;;;;;;5038621;28;20487;-86
2021/09/14 02:02:56;;;;;;;1999.90;999.90;;;14.70;99.90;;;;;;5034918;28;20991;-86
2021/09/14 02:05:36;;;;;;;1999.90;999.90;;;14.70;99.90;;;;;;5018376;28;20522;-86
2021/09/14 02:08:20;;;;;;;1999.90;999.90;;;14.60;99.90;;;;;;5017391;28;20876;-86
2021/09/14 02:38:36;;;;;;;1999.90;999.90;;;14.30;99.90;;;;;;4997862;28;20481;-86
2021/09/14 02:41:23;;;;;;;1999.90;999.90;;;14.30;99.90;;;;;;4999875;28;20458;-86
2021/09/14 02:44:00;;;;;;;1999.90;999.90;;;14.20;99.90;;;;;;5011716;28;20647;-87
2021/09/14 03:00:11;;;;;;;1999.90;999.90;;;14.10;99.90;;;;;;5038568;28;20433;-87
2021/09/14 03:02:39;;;;;;;1999.90;999.90;;;14.10;99.90;;;;;;5037428;28;20453;-86
2021/09/14 03:05:07;;;;;;;1999.90;999.90;;;14.00;99.90;;;;;;5019008;28;20464;-86
2021/09/14 03:07:34;;;;;;;1999.90;999.90;;;14.10;99.90;;;;;;5018448;28;20447;-87
2021/09/14 03:10:00;;;;;;;1999.90;999.90;;;14.10;99.90;;;;;;5018151;28;20441;-84
2021/09/14 03:12:27;;;;;;;1999.90;999.90;;;14.00;99.90;;;;;;5017273;28;20454;-83
2021/09/14 03:14:54;;;;;;;1999.90;999.90;;;14.00;99.90;;;;;;5033576;28;20459;-83
2021/09/14 03:17:21;;;;;;;1999.90;999.90;;;14.00;99.90;;;;;;5034265;28;20479;-83
2021/09/14 03:19:49;;;;;;;1999.90;999.90;;;14.00;99.90;;;;;;5029667;28;20577;-84
2021/09/14 03:22:16;;;;;;;1999.90;999.90;;;14.00;99.90;;;;;;5033357;28;20467;-84
2021/09/14 03:24:42;;;;;;;1999.90;999.90;;;13.90;99.90;;;;;;5026212;28;20456;-84
2021/09/14 03:27:09;;;;;;;1999.90;999.90;;;13.90;99.90;;;;;;5034708;28;20477;-85
2021/09/14 03:29:36;;;;;;;1999.90;999.90;;;13.90;99.90;;;;;;5032889;28;20825;-83
2021/09/14 03:32:03;;;;;;;1999.90;999.90;;;13.90;99.90;;;;;;5029612;28;20973;-86
2021/09/14 03:34:30;;;;;;;1999.90;999.90;;;13.90;99.90;;;;;;5034334;28;20496;-86
2021/09/14 03:36:58;;;;;;;1999.90;999.90;;;13.90;99.90;;;;;;5033356;28;21027;-86
2021/09/14 03:39:25;;;;;;;1999.90;999.90;;;13.90;99.90;;;;;;5034145;28;20487;-86
2021/09/14 03:41:52;;;;;;;1999.90;999.90;;;13.90;99.90;;;;;;5028131;28;20456;-85
2021/09/14 03:44:19;;;;;;;1999.90;999.90;;;13.90;99.90;;;;;;5034191;28;20457;-85
2021/09/14 03:46:45;;;;;;;1999.90;999.90;;;13.90;99.90;;;;;;5034825;28;20839;-85
2021/09/14 03:49:12;;;;;;;1999.90;999.90;;;13.90;99.90;;;;;;5034469;28;20463;-85
2021/09/14 03:51:39;;;;;;;1999.90;999.90;;;13.90;99.90;;;;;;5033950;28;20457;-85
2021/09/14 03:54:07;;;;;;;1999.90;999.90;;;13.90;99.90;;;;;;5034094;28;20466;-87
2021/09/14 03:56:34;;;;;;;1999.90;999.90;;;13.90;99.90;;;;;;5034178;28;20483;-85
2021/09/14 03:59:01;;;;;;;1999.90;999.90;;;13.80;99.90;;;;;;5034733;28;20509;-85
2021/09/14 04:01:28;;;;;;;1999.90;999.90;;;13.90;99.90;;;;;;5031277;28;20480;-85
2021/09/14 04:03:58;;;;;;;1999.90;999.90;;;13.90;99.90;;;;;;5013719;28;20545;-85
2021/09/14 04:06:51;;;;;;;1999.90;999.90;;;13.90;99.90;;;;;;5051105;22;20489;-82
2021/09/14 04:09:19;;;;;;;1999.90;999.90;;;13.90;99.90;;;;;;5055226;28;20827;-81
2021/09/14 04:11:48;;;;;;;1999.90;999.90;;;13.80;99.90;;;;;;5055849;28;20447;-81
2021/09/14 04:14:15;;;;;;;1999.90;999.90;;;13.80;99.90;;;;;;5056043;28;20594;-81
2021/09/14 04:16:42;;;;;;;1999.90;999.90;;;13.80;99.90;;;;;;5055586;28;20477;-81
2021/09/14 04:19:09;;;;;;;1999.90;999.90;;;13.70;99.90;;;;;;5055862;28;20490;-81
2021/09/14 04:21:36;;;;;;;1999.90;999.90;;;13.80;99.90;;;;;;5052829;28;20832;-80
2021/09/14 04:24:02;;;;;;;1999.90;999.90;;;13.80;99.90;;;;;;5037718;28;20452;-82
2021/09/14 04:26:31;;;;;;;1999.90;999.90;;;13.80;99.90;;;;;;5036488;28;20480;-82
2021/09/14 04:28:57;;;;;;;1999.90;999.90;;;13.80;99.90;;;;;;5037355;28;20462;-82
2021/09/14 04:31:24;;;;;;;1999.90;999.90;;;13.70;99.90;;;;;;5037383;28;20459;-82
2021/09/14 04:33:51;;;;;;;1999.90;999.90;;;13.70;99.90;;;;;;5055404;28;20454;-81
2021/09/14 04:36:18;;;;;;;1999.90;999.90;;;13.70;99.90;;;;;;5053576;28;20486;-81
2021/09/14 04:38:44;;;;;;;1999.90;999.90;;;13.80;99.90;;;;;;5050314;28;20493;-81
2021/09/14 04:41:11;;;;;;;1999.90;999.90;;;13.80;99.90;;;;;;5046368;28;20542;-82
2021/09/14 04:43:39;;;;;;;1999.90;999.90;;;13.80;99.90;;;;;;5041193;28;20953;-81
2021/09/14 04:46:06;;;;;;;1999.90;999.90;;;13.80;99.90;;;;;;5050486;28;20487;-81
2021/09/14 04:48:33;;;;;;;1999.90;999.90;;;13.80;99.90;;;;;;5057281;28;20449;-81
2021/09/14 04:51:00;;;;;;;1999.90;999.90;;;13.80;99.90;;;;;;5045897;28;20458;-81
2021/09/14 04:53:27;;;;;;;1999.90;999.90;;;13.80;99.90;;;;;;5053058;28;20448;-80
2021/09/14 04:55:54;;;;;;;1999.90;999.90;;;13.80;99.90;;;;;;5053356;28;20474;-81
2021/09/14 04:58:20;;;;;;;1999.90;999.90;;;13.80;99.90;;;;;;5047230;28;20497;-81
2021/09/14 05:00:48;;;;;;;1999.90;999.90;;;13.90;99.90;;;;;;5053609;28;20441;-81
2021/09/14 05:03:15;;;;;;;1999.90;999.90;;;13.90;99.90;;;;;;5057128;28;20447;-81
2021/09/14 05:05:42;;;;;;;1999.90;999.90;;;13.90;99.90;;;;;;5055572;28;20448;-81
2021/09/14 05:08:09;;;;;;;1999.90;999.90;;;13.90;99.90;;;;;;5052357;28;20485;-80
2021/09/14 05:10:36;;;;;;;1999.90;999.90;;;13.90;99.90;;;;;;5054308;28;20459;-81
2021/09/14 05:13:04;;;;;;;1999.90;999.90;;;13.90;99.90;;;;;;5039219;28;20456;-81
2021/09/14 05:15:31;;;;;;;1999.90;999.90;;;13.90;99.90;;;;;;5033546;28;20850;-80
2021/09/14 05:17:59;;;;;;;790.70;406.37;;;14.00;99.90;;;;;;5043158;28;20904;-79
2021/09/14 05:20:26;;;;;;;1999.90;999.90;;;15.80;99.90;;;;;;5034332;28;20458;-80
2021/09/14 05:23:10;;;;;;;1999.90;999.90;;;16.50;99.90;;;;;;5023195;28;20458;-80
2021/09/14 05:25:37;;;;;;;1999.90;999.90;;;16.80;99.90;;;;;;5045433;28;20457;-80
2021/09/14 05:28:04;;;;;;;1999.90;999.90;;;17.10;99.90;;;;;;5045793;28;20523;-80
2021/09/14 05:30:31;;;;;;;1999.90;999.90;;;17.20;99.90;;;;;;5032400;28;20541;-79
2021/09/14 05:32:59;;;;;;;1999.90;999.90;;;17.40;99.90;;;;;;5031727;28;20462;-79
2021/09/14 05:35:33;;;;;;;1999.90;999.90;;;17.50;99.90;;;;;;5064855;28;20450;-81
2021/09/14 05:38:00;;;;;;;1999.90;999.90;;;17.40;99.90;;;;;;5070315;28;20451;-80
2021/09/14 05:40:27;;;;;;;1999.90;999.90;;;17.00;99.90;;;;;;5061372;28;20542;-80
2021/09/14 05:42:54;;;;;;;1999.90;999.90;;;16.60;99.90;;;;;;5038779;28;20862;-80
2021/09/14 05:45:20;;;;;;;1999.90;999.90;;;16.20;99.90;;;;;;5031493;28;20453;-80
2021/09/14 05:47:47;;;;;;;1999.90;999.90;;;16.00;99.90;;;;;;5030542;28;20992;-80
2021/09/14 05:50:16;;;;;;;1999.90;999.90;;;15.70;99.90;;;;;;5030520;28;20494;-82
2021/09/14 05:52:42;;;;;;;1999.90;999.90;;;15.60;99.90;;;;;;5041463;28;20456;-80
2021/09/14 05:55:10;;;;;;;1999.90;999.90;;;15.50;99.90;;;;;;5051909;28;20473;-80
2021/09/14 05:57:37;;;;;;;1999.90;999.90;;;15.30;99.90;;;;;;5052139;28;20468;-80
2021/09/14 06:00:05;;;;;;;1999.90;999.90;;;15.20;99.90;;;;;;5051366;28;20812;-80
2021/09/14 06:02:31;;;;;;;1999.90;999.90;;;15.20;99.90;;;;;;5042391;28;20465;-80
2021/09/14 06:04:58;;;;;;;1999.90;999.90;;;15.10;99.90;;;;;;5031596;28;20539;-81
2021/09/14 06:07:26;;;;;;;1999.90;999.90;;;15.10;99.90;;;;;;5030132;28;20479;-80
2021/09/14 06:09:53;;;;;;;1999.90;999.90;;;15.00;99.90;;;;;;5031033;28;20488;-80
2021/09/14 06:12:20;;;;;;;1999.90;999.90;;;15.00;99.90;;;;;;5057884;28;20453;-80
2021/09/14 06:14:47;;;;;;;1999.90;999.90;;;15.00;99.90;;;;;;5041273;28;20460;-80
2021/09/14 06:17:14;;;;;;;1999.90;999.90;;;15.00;99.90;;;;;;5042251;28;20485;-81
2021/09/14 06:19:40;;;;;;;1999.90;999.90;;;15.00;99.90;;;;;;5041312;28;20463;-80
2021/09/14 06:22:07;;;;;;;1999.90;999.90;;;15.00;99.90;;;;;;5039771;28;20458;-81
2021/09/14 06:24:35;;;;;;;1999.90;999.90;;;15.00;99.90;;;;;;5041818;28;20470;-80
2021/09/14 06:27:03;;;;;;;1999.90;999.90;;;15.00;99.90;;;;;;5038208;28;20533;-79
2021/09/14 06:29:29;;;;;;;1999.90;999.90;;;15.00;99.90;;;;;;5039330;28;20484;-80
2021/09/14 06:31:56;;;;;;;1999.90;999.90;;;15.10;99.90;;;;;;5033501;28;20964;-80
2021/09/14 06:34:23;;;;;;;1999.90;999.90;;;15.10;99.90;;;;;;5040777;28;21004;-79
2021/09/14 06:36:50;;;;;;;1999.90;999.90;;;15.20;99.90;;;;;;5035149;28;20471;-80
2021/09/14 06:39:17;;;;;;;1999.90;999.90;;;15.20;99.90;;;;;;5048081;28;20444;-80
2021/09/14 06:41:45;;;;;;;1999.90;999.90;;;15.30;99.90;;;;;;5036697;28;20468;-79
2021/09/14 06:44:12;;;;;;;1999.90;999.90;;;15.30;99.90;;;;;;5050118;28;20452;-79
2021/09/14 06:46:39;;;;;;;1999.90;999.90;;;15.40;99.90;;;;;;5040172;28;20561;-79
2021/09/14 06:49:05;;;;;;;1999.90;999.90;;;15.40;99.90;;;;;;5049587;28;21015;-80
2021/09/14 06:51:32;;;;;;;1999.90;999.90;;;15.50;99.90;;;;;;5043508;28;20478;-79
2021/09/14 06:53:59;;;;;;;1999.90;999.90;;;15.50;99.90;;;;;;5045479;28;20458;-80
2021/09/14 06:56:26;;;;;;;1999.90;999.90;;;15.60;99.90;;;;;;5052996;28;20467;-79
2021/09/14 06:58:54;;;;;;;1999.90;999.90;;;15.70;99.90;;;;;;5041877;28;20470;-80
2021/09/14 07:01:22;;;;;;;1999.90;999.90;;;15.70;99.90;;;;;;5045206;28;20466;-80
2021/09/14 07:03:50;;;;;;;1999.90;999.90;;;15.90;99.90;;;;;;5045519;28;21011;-81
2021/09/14 07:06:17;;;;;;;1999.90;999.90;;;16.00;99.90;;;;;;5039915;28;20476;-81
2021/09/14 07:08:44;;;;;;;1999.90;999.90;;;16.10;99.90;;;;;;5040700;28;20837;-81
2021/09/14 07:11:11;;;;;;;1999.90;999.90;;;16.20;99.90;;;;;;5058479;28;20959;-81
2021/09/14 07:13:38;;;;;;;1999.90;999.90;;;16.30;99.90;;;;;;5043993;28;20457;-80
2021/09/14 07:16:07;;;;;;;1999.90;999.90;;;16.50;99.90;;;;;;5048915;28;20478;-80
2021/09/14 07:18:37;;;;;;;1999.90;999.90;;;16.60;99.90;;;;;;5052656;28;21009;-81
2021/09/14 07:21:04;;;;;;;1999.90;999.90;;;16.70;99.90;;;;;;5042673;28;20492;-81
2021/09/14 07:23:31;;;;;;;1999.90;999.90;;;16.90;99.90;;;;;;5046959;28;20828;-80
2021/09/14 07:25:59;;;;;;;1999.90;999.90;;;17.00;99.90;;;;;;5053112;28;20463;-80
2021/09/14 07:28:26;;;;;;;1999.90;999.90;;;17.20;99.90;;;;;;5051936;28;20458;-80
2021/09/14 07:30:52;;;;;;;1999.90;999.90;;;17.20;99.90;;;;;;5053528;28;20462;-80
2021/09/14 07:33:21;;;;;;;1999.90;999.90;;;17.40;99.90;;;;;;5035714;28;20468;-80
2021/09/14 07:35:47;;;;;;;1999.90;999.90;;;17.40;99.90;;;;;;5032991;28;20460;-80
2021/09/14 07:38:14;;;;;;;1999.90;999.90;;;17.60;99.90;;;;;;5049482;28;20458;-80
2021/09/14 07:40:41;;;;;;;1999.90;999.90;;;17.70;99.90;;;;;;5053722;28;20458;-80
2021/09/14 07:43:08;;;;;;;1999.90;999.90;;;17.80;99.90;;;;;;5052872;28;20829;-80
2021/09/14 07:45:34;;;;;;;1999.90;999.90;;;17.80;99.90;;;;;;5051912;28;20457;-80
2021/09/14 07:48:01;;;;;;;1999.90;999.90;;;17.90;99.90;;;;;;5050933;28;20451;-80
2021/09/14 07:50:30;;;;;;;1999.90;999.90;;;18.00;99.90;;;;;;5044105;28;21009;-79
2021/09/14 07:52:56;;;;;;;1999.90;999.90;;;18.70;99.90;;;;;;5033249;28;20824;-79
2021/09/14 07:55:24;;;;;;;1999.90;999.90;;;19.00;99.90;;;;;;5048422;28;20442;-79
2021/09/14 07:57:51;;;;;;;1999.90;999.90;;;19.10;99.90;;;;;;5051895;28;20578;-81
2021/09/14 08:00:18;;;;;;;1999.90;999.90;;;19.20;99.90;;;;;;5049156;28;20461;-81
2021/09/14 08:02:53;;;;;;;1999.90;999.90;;;19.20;99.90;;;;;;5053586;28;20451;-80
2021/09/14 08:05:20;;;;;;;1999.90;999.90;;;19.20;99.90;;;;;;5053463;28;21005;-81
2021/09/14 08:07:48;;;;;;;1999.90;999.90;;;19.20;99.90;;;;;;5051868;28;20508;-80
2021/09/14 08:10:15;;;;;;;1999.90;999.90;;;19.20;99.90;;;;;;5052084;28;20491;-79
2021/09/14 08:12:42;;;;;;;1999.90;999.90;;;19.30;99.90;;;;;;5051512;28;20448;-81
2021/09/14 08:15:10;;;;;;;1999.90;999.90;;;19.30;99.90;;;;;;5035977;28;21004;-81
2021/09/14 08:17:37;;;;;;;1999.90;999.90;;;19.30;99.90;;;;;;5036041;28;20471;-80
2021/09/14 08:20:05;;;;;;;1999.90;999.90;;;19.40;99.90;;;;;;5041895;28;20970;-80
2021/09/14 08:22:32;;;;;;;1999.90;999.90;;;19.50;99.90;;;;;;5043313;28;20466;-80
2021/09/14 08:25:00;;;;;;;1999.90;999.90;;;19.50;99.90;;;;;;5046586;28;20453;-80
2021/09/14 08:27:27;;;;;;;1999.90;999.90;;;19.70;99.90;;;;;;5047127;28;20563;-80
2021/09/14 08:29:54;;;;;;;1999.90;999.90;;;19.80;99.90;;;;;;5045025;28;20480;-80
2021/09/14 08:32:21;;;;;;;1999.90;999.90;;;19.90;99.90;;;;;;5038195;28;20448;-79
2021/09/14 08:34:47;;;;;;;1999.90;999.90;;;20.00;99.90;;;;;;5031987;28;20488;-79
2021/09/14 08:37:14;;;;;;;1999.90;999.90;;;20.20;99.90;;;;;;5042172;28;20484;-80
2021/09/14 08:39:41;;;;;;;1999.90;999.90;;;20.30;99.90;;;;;;5048906;28;20531;-80
2021/09/14 08:42:10;;;;;;;1999.90;999.90;;;20.40;99.90;;;;;;5051398;28;20460;-80
2021/09/14 08:44:38;;;;;;;1999.90;999.90;;;20.50;99.90;;;;;;5052268;28;20508;-81
2021/09/14 08:47:06;;;;;;;1999.90;999.90;;;20.60;99.90;;;;;;5048585;28;20484;-80
2021/09/14 08:49:34;;;;;;;1999.90;999.90;;;20.70;99.90;;;;;;5051701;28;20502;-80
2021/09/14 08:52:00;;;;;;;1999.90;999.90;;;20.70;99.90;;;;;;5051957;28;20479;-80
2021/09/14 08:54:27;;;;;;;1999.90;999.90;;;20.80;99.90;;;;;;5052405;28;20458;-81
2021/09/14 08:56:54;;;;;;;1999.90;999.90;;;20.80;99.90;;;;;;5049732;28;20484;-81
2021/09/14 08:59:29;;;;;;;1999.90;999.90;;;21.00;99.90;;;;;;5046330;28;20524;-81
2021/09/14 09:02:00;;;;;;;1999.90;999.90;;;21.20;99.90;;;;;;5047044;28;20527;-80
2021/09/14 09:04:27;;;;;;;1999.90;999.90;;;21.60;99.90;;;;;;5037021;28;20449;-79
2021/09/14 09:06:54;;;;;;;1999.90;999.90;;;22.00;99.90;;;;;;5040312;28;20556;-79
2021/09/14 09:09:22;;;;;;;1999.90;999.90;;;22.40;99.90;;;;;;5050621;28;20864;-80
2021/09/14 09:11:57;;;;;;;1999.90;999.90;;;22.80;99.90;;;;;;5047090;28;20463;-80
2021/09/14 09:14:36;;;;;;;1999.90;999.90;;;23.20;99.90;;;;;;5045762;28;20539;-80
2021/09/14 09:17:05;;;;;;;1999.90;999.90;;;23.70;99.90;;;;;;5035874;28;20467;-80
2021/09/14 09:19:32;;;;;;;1999.90;999.90;;;24.00;99.90;;;;;;5045638;28;20448;-80
2021/09/14 09:21:59;;;;;;;1999.90;999.90;;;24.30;99.90;;;;;;5043406;28;20543;-80
2021/09/14 09:24:26;;;;;;;1999.90;999.90;;;24.40;99.90;;;;;;5050321;28;20451;-80
2021/09/14 09:26:53;;;;;;;1999.90;999.90;;;24.40;99.90;;;;;;5050267;28;20546;-80
2021/09/14 09:29:23;;;;;;;1999.90;999.90;;;24.60;99.90;;;;;;5050328;28;20452;-80
2021/09/14 09:31:52;;;;;;;1999.90;999.90;;;24.70;99.90;;;;;;5047479;28;20892;-80
2021/09/14 09:34:27;;;;;;;1999.90;999.90;;;24.70;99.90;;;;;;5042804;28;20448;-81
2021/09/14 09:37:04;;;;;;;1999.90;999.90;;;24.70;99.90;;;;;;5038848;28;20478;-80
2021/09/14 09:39:41;;;;;;;1999.90;999.90;;;25.00;99.90;;;;;;5030842;28;20437;-82
2021/09/14 09:42:09;;;;;;;1999.90;999.90;;;25.00;99.90;;;;;;5038883;28;20451;-81
2021/09/14 09:44:36;;;;;;;1999.90;999.90;;;25.10;99.90;;;;;;5043839;28;20537;-80
2021/09/14 09:47:04;;;;;;;1999.90;999.90;;;25.50;99.90;;;;;;5038586;28;20456;-81
2021/09/14 09:49:32;;;;;;;1999.90;999.90;;;25.80;99.90;;;;;;5030302;28;20476;-81
2021/09/14 09:52:00;;;;;;;1999.90;999.90;;;26.00;99.90;;;;;;5032674;28;20550;-81
2021/09/14 09:54:26;;;;;;;1999.90;999.90;;;26.00;99.90;;;;;;5032854;28;20458;-81
2021/09/14 09:56:54;;;;;;;1999.90;999.90;;;26.40;99.90;;;;;;5031726;28;20840;-81
2021/09/14 09:59:21;;;;;;;1999.90;999.90;;;26.60;99.90;;;;;;5031925;28;20683;-82
2021/09/14 10:02:08;;;;;;;1999.90;999.90;;;27.10;99.90;;;;;;5050126;28;20453;-81
2021/09/14 10:04:42;;;;;;;1999.90;999.90;;;27.80;99.90;;;;;;5042279;28;20536;-81
2021/09/14 10:07:12;;;;;;;1999.90;999.90;;;28.50;99.90;;;;;;5034030;28;20475;-81
2021/09/14 10:09:49;;;;;;;1999.90;999.90;;;28.70;99.90;;;;;;5029799;28;20487;-81
2021/09/14 10:12:23;;;;;;;1999.90;999.90;;;28.90;99.90;;;;;;5031243;28;20464;-81
2021/09/14 10:15:00;;;;;;;1999.90;999.90;;;28.70;99.90;;;;;;5032323;28;20449;-81
2021/09/14 10:17:29;;;;;;;1999.90;999.90;;;28.30;99.90;;;;;;5030403;28;20464;-81
2021/09/14 10:19:56;;;;;;;1999.90;999.90;;;28.40;99.90;;;;;;5032053;28;20631;-83
2021/09/14 10:22:25;;;;;;;1999.90;999.90;;;28.60;99.90;;;;;;5050692;28;20503;-81
2021/09/14 10:24:56;;;;;;;1999.90;999.90;;;28.70;99.90;;;;;;5076995;28;20447;-82
2021/09/14 10:27:34;;;;;;;1999.90;999.90;;;28.70;99.90;;;;;;5042540;28;20860;-81
2021/09/14 10:30:00;;;;;;;1999.90;999.90;;;29.00;99.90;;;;;;5043060;28;20491;-81
2021/09/14 10:32:37;;;;;;;1999.90;999.90;;;;;;;;;;5028998;28;20462;-80
2021/09/14 10:35:06;;;;;;;1999.90;999.90;;;;;;;;;;5039363;28;20463;-82
2021/09/14 10:37:34;;;;;;;1999.90;999.90;;;;;;;;;;5043449;28;21025;-81
2021/09/14 10:40:07;;;;;;;1999.90;999.90;;;;;;;;;;5043666;28;20464;-82
2021/09/14 10:42:36;;;;;;;1999.90;999.90;;;;;;;;;;5046677;28;21028;-81
2021/09/14 10:45:07;;;;;;;1999.90;999.90;;;;;;;;;;5041856;28;20467;-81
2021/09/14 10:47:37;;;;;;;1999.90;999.90;;;;;;;;;;5042779;28;20921;-82
2021/09/14 10:50:05;;;;;;;1999.90;999.90;;;;;;;;;;5044840;28;20870;-82
2021/09/14 10:52:34;;;;;;;1999.90;999.90;;;;;;;;;;5042260;28;21007;-81
2021/09/14 10:55:06;;;;;;;1999.90;999.90;;;;;;;;;;5048603;28;20551;-83
2021/09/14 10:57:33;;;;;;;1999.90;999.90;;;;;;;;;;5050430;28;20463;-83
2021/09/14 11:00:01;;;;;;;1999.90;999.90;;;;;;;;;;5044873;28;20436;-83
2021/09/14 11:02:28;;;;;;;1999.90;999.90;;;;;;;;;;5046156;28;20441;-82
2021/09/14 11:04:56;;;;;;;1999.90;999.90;;;;;;;;;;5046268;28;20436;-82
2021/09/14 11:07:23;;;;;;;1999.90;999.90;;;;;;;;;;5044573;28;20844;-82
2021/09/14 11:09:55;;;;;;;1999.90;999.90;;;;;;;;;;5041750;28;20447;-82
2021/09/14 11:12:23;;;;;;;1999.90;999.90;;;;;;;;;;5034420;28;20461;-83
2021/09/14 11:14:53;;;;;;;1999.90;999.90;;;;;;;;;;5045283;28;20808;-82
2021/09/14 11:17:24;;;;;;;1999.90;999.90;;;;;;;;;;5046588;28;20468;-83
2021/09/14 11:19:52;;;;;;;1999.90;999.90;;;;;;;;;;5048126;28;20444;-82
2021/09/14 11:22:29;;;;;;;1999.90;999.90;;;;;;;;;;5047846;28;20456;-82
2021/09/14 11:24:58;;;;;;;1999.90;999.90;;;;;;;;;;5055999;28;20455;-83
2021/09/14 11:27:25;;;;;;;1999.90;999.90;;;;;;;;;;5041553;28;20480;-82
2021/09/14 11:29:52;;;;;;;1999.90;999.90;;;;;;;;;;5043164;28;20540;-82
2021/09/14 11:32:20;;;;;;;1999.90;999.90;;;;;;;;;;5045007;28;20460;-83
2021/09/14 11:34:47;;;;;;;1999.90;999.90;;;;;;;;;;5042275;28;20968;-82
2021/09/14 11:37:15;;;;;;;1999.90;999.90;;;;;;;;;;5045102;28;20472;-82
2021/09/14 11:39:42;;;;;;;1999.90;999.90;;;;;;;;;;5047418;28;20464;-83
2021/09/14 11:42:10;;;;;;;1999.90;999.90;;;;;;;;;;5053714;28;20456;-83
2021/09/14 11:44:37;;;;;;;1999.90;999.90;;;;;;;;;;5049509;28;20463;-84
2021/09/14 11:47:08;;;;;;;1999.90;999.90;;;;;;;;;;5042090;28;20436;-82
2021/09/14 11:49:35;;;;;;;1999.90;999.90;;;;;;;;;;5053206;28;20444;-82
2021/09/14 11:52:04;;;;;;;1999.90;999.90;;;;;;;;;;5041590;28;20487;-81
2021/09/14 11:54:34;;;;;;;648.13;608.07;;;;;;;;;;5043210;28;20467;-81
2021/09/14 11:57:01;;;;;;;767.70;724.53;;;;;;;;;;5041185;28;20477;-81
2021/09/14 11:59:32;;;;;;;830.27;780.30;;;;;;;;;;5042005;28;20481;-80
2021/09/14 12:02:00;;;;;;;1999.90;999.90;;;;;;;;;;5044000;28;20455;-80
2021/09/14 12:04:27;;;;;;;1422.17;748.77;;;;;;;;;;5045253;28;20448;-82
2021/09/14 12:06:55;;;;;;;478.70;451.33;;;;;;;;;;5042217;28;20476;-82
2021/09/14 12:09:23;;;;;;;682.83;638.67;;;;;;;;;;5045871;28;20460;-80
2021/09/14 12:11:59;;;;;;;273.40;252.53;;;;;;;;;;5043895;28;20484;-82
2021/09/14 12:14:27;;;;;;;254.70;235.90;;;;;;;;;;5040487;28;20448;-82
2021/09/14 12:16:59;;;;;;;217.83;200.10;;;;;;;;;;5045760;28;21114;-81
2021/09/14 12:19:26;;;;;;;493.50;466.83;;;;;;;;;;5041017;28;20448;-81
2021/09/14 12:21:54;;;;;;;626.77;589.23;;;;;;;;;;5034451;28;20456;-82
2021/09/14 12:24:21;;;;;;;577.10;542.10;;;;;;;;;;5040390;28;20449;-81
2021/09/14 12:26:51;;;;;;;556.63;524.80;;;;;;;;;;5040756;28;20476;-82
2021/09/14 12:29:19;;;;;;;253.47;109.17;;;;;;;;;;5037426;28;20457;-82
2021/09/14 12:31:46;;;;;;;427.30;405.83;;;;;;;;;;5042685;28;21008;-81
2021/09/14 12:34:15;;;;;;;115.10;105.07;;;;;;;;;;5047233;28;20459;-82
2021/09/14 12:36:43;;;;;;;118.43;107.80;;;;;;;;;;5045438;28;20473;-81
2021/09/14 12:39:10;;;;;;;117.40;106.97;;;;;;;;;;5046098;28;20457;-81
2021/09/14 12:41:37;;;;;;;149.37;136.80;;;;;;;;;;5044672;28;20917;-82
2021/09/14 12:44:05;;;;;;;137.50;125.40;;;;;;;;;;5040270;28;20445;-82
2021/09/14 12:46:32;;;;;;;98.50;83.17;;;;;;;;;;5040977;28;20995;-80
2021/09/14 12:48:59;;;;;;;206.63;192.27;;;;;;;;;;5039698;28;20451;-83
2021/09/14 12:51:29;;;;;;;439.33;415.17;;;;;;;;;;5049010;28;20512;-82
2021/09/14 12:53:56;;;;;;;74.83;50.07;;;;;;;;;;5043034;28;20460;-82
2021/09/14 12:56:23;;;;;;;144.00;132.33;;;;;;;;;;5047772;28;20468;-83
2021/09/14 12:58:51;;;;;;;73.30;42.87;;;;;;;;;;5047047;28;20463;-82
2021/09/14 13:01:18;;;;;;;412.53;388.53;;;;;;;;;;5041770;28;20991;-82
2021/09/14 13:03:46;;;;;;;162.27;149.23;;;;;;;;;;5043622;28;20470;-82
2021/09/14 13:06:13;;;;;;;67.63;34.47;;;;;;;;;;5039035;28;20480;-83
2021/09/14 13:08:41;;;;;;;730.67;687.80;;;;;;;;;;5040260;28;20445;-83
2021/09/14 13:11:09;;;;;;;684.10;646.17;;;;;;;;;;5040811;28;20481;-83